createdAt,value
2019-02-06T00:03:55.356Z,1.24
2019-02-06T00:06:21.226Z,1.27
2019-02-06T00:08:47.527Z,1.26
2019-02-06T00:11:13.427Z,1.34
2019-02-06T00:13:39.505Z,1.26
2019-02-06T00:16:05.628Z,1.25
2019-02-06T00:18:31.516Z,1.26
2019-02-06T00:20:58.322Z,1.20
2019-02-06T00:23:25.367Z,1.32
2019-02-06T00:25:51.617Z,1.36
2019-02-06T00:31:00.144Z,1.45
2019-02-06T00:33:29.785Z,1.40
2019-02-06T00:35:59.253Z,1.42
2019-02-06T00:38:28.736Z,1.38
2019-02-06T00:40:58.214Z,1.38
2019-02-06T00:43:28.053Z,1.41
2019-02-06T00:45:57.531Z,1.40
2019-02-06T00:48:27.337Z,1.35
2019-02-06T00:50:56.823Z,1.38
2019-02-06T00:53:26.304Z,1.44
2019-02-06T00:55:56.115Z,1.42
2019-02-06T00:58:25.776Z,1.41
2019-02-06T01:00:55.309Z,1.31
2019-02-06T01:03:25.201Z,1.24
2019-02-06T01:05:54.689Z,1.19
2019-02-06T01:08:24.159Z,1.18
2019-02-06T01:10:53.616Z,1.21
2019-02-06T01:13:23.457Z,1.30
2019-02-06T01:15:53.212Z,1.27
2019-02-06T01:18:22.681Z,1.20
2019-02-06T01:20:52.647Z,1.15
2019-02-06T01:23:22.133Z,1.11
2019-02-06T01:25:51.613Z,1.04
2019-02-06T01:28:21.392Z,0.99
2019-02-06T01:30:52.543Z,1.02
2019-02-06T01:33:22.181Z,0.97
2019-02-06T01:35:51.642Z,0.95
2019-02-06T01:38:21.158Z,0.89
2019-02-06T01:40:50.646Z,0.88
2019-02-06T01:43:20.404Z,0.88
2019-02-06T01:45:50.243Z,0.90
2019-02-06T01:48:19.734Z,0.90
2019-02-06T01:50:49.200Z,0.89
2019-02-06T01:53:18.702Z,0.89
2019-02-06T01:55:48.193Z,0.93
2019-02-06T01:58:18.103Z,0.90
2019-02-06T02:00:47.625Z,0.81
2019-02-06T02:03:17.098Z,0.80
2019-02-06T02:05:47.419Z,0.79
2019-02-06T02:08:17.547Z,0.77
2019-02-06T02:10:47.185Z,0.72
2019-02-06T02:13:17.295Z,0.71
2019-02-06T02:15:47.044Z,0.71
2019-02-06T02:18:16.694Z,0.73
2019-02-06T02:20:46.438Z,0.74
2019-02-06T02:23:15.970Z,0.72
2019-02-06T02:25:45.721Z,0.83
2019-02-06T02:28:15.736Z,0.80
2019-02-06T02:30:47.030Z,0.83
2019-02-06T02:33:16.768Z,0.89
2019-02-06T02:35:46.619Z,0.87
2019-02-06T02:38:16.363Z,0.75
2019-02-06T02:40:46.244Z,0.69
2019-02-06T02:43:15.867Z,0.73
2019-02-06T02:45:45.720Z,0.72
2019-02-06T02:48:15.179Z,0.78
2019-02-06T02:50:44.667Z,0.84
2019-02-06T02:53:14.484Z,0.82
2019-02-06T02:55:44.270Z,0.72
2019-02-06T02:58:13.765Z,0.68
2019-02-06T03:00:56.789Z,0.67
2019-02-06T03:03:39.817Z,0.70
2019-02-06T03:06:10.061Z,0.67
2019-02-06T03:08:39.506Z,0.78
2019-02-06T03:11:08.986Z,0.88
2019-02-06T03:13:38.475Z,0.88
2019-02-06T03:16:08.096Z,0.89
2019-02-06T03:18:37.568Z,0.89
2019-02-06T03:21:07.396Z,0.82
2019-02-06T03:23:36.864Z,0.74
2019-02-06T03:26:06.368Z,0.63
2019-02-06T03:28:35.858Z,0.67
2019-02-06T03:31:05.853Z,0.79
2019-02-06T03:33:35.732Z,0.82
2019-02-06T03:36:05.553Z,0.69
2019-02-06T03:38:35.058Z,0.70
2019-02-06T03:41:05.207Z,0.72
2019-02-06T03:43:34.973Z,0.74
2019-02-06T03:46:04.738Z,0.70
2019-02-06T03:48:34.209Z,0.63
2019-02-06T03:51:04.235Z,0.53
2019-02-06T03:53:33.735Z,0.52
2019-02-06T03:56:03.214Z,0.57
2019-02-06T03:58:32.677Z,0.60
2019-02-06T04:01:02.568Z,0.58
2019-02-06T04:03:32.191Z,0.55
2019-02-06T04:06:02.116Z,0.57
2019-02-06T04:08:31.597Z,0.55
2019-02-06T04:11:01.165Z,0.56
2019-02-06T04:13:30.805Z,0.53
2019-02-06T04:16:00.576Z,0.45
2019-02-06T04:18:30.032Z,0.40
2019-02-06T04:20:59.805Z,0.36
2019-02-06T04:23:29.559Z,0.32
2019-02-06T04:25:59.028Z,0.29
2019-02-06T04:28:28.498Z,0.23
2019-02-06T04:30:58.344Z,0.21
2019-02-06T04:33:27.834Z,0.17
2019-02-06T04:35:57.705Z,0.14
2019-02-06T04:38:27.154Z,0.09
2019-02-06T04:40:56.812Z,0.04
2019-02-06T04:43:26.352Z,0.02
2019-02-06T04:45:55.834Z,-0.05
2019-02-06T04:48:25.311Z,-0.15
2019-02-06T04:50:55.149Z,-0.19
2019-02-06T04:53:24.642Z,-0.28
2019-02-06T04:55:54.553Z,-0.40
2019-02-06T04:58:23.993Z,-0.52
2019-02-06T05:00:53.852Z,-0.54
2019-02-06T05:03:25.687Z,-0.52
2019-02-06T05:05:54.614Z,-0.42
2019-02-06T05:08:24.092Z,-0.36
2019-02-06T05:10:53.666Z,-0.29
2019-02-06T05:13:23.520Z,-0.18
2019-02-06T05:15:52.997Z,-0.09
2019-02-06T05:18:22.568Z,-0.01
2019-02-06T05:20:52.765Z,0.07
2019-02-06T05:23:22.563Z,0.12
2019-02-06T05:25:52.030Z,0.14
2019-02-06T05:28:21.525Z,0.17
2019-02-06T05:30:51.038Z,0.18
2019-02-06T05:33:20.908Z,0.23
2019-02-06T05:35:50.753Z,0.23
2019-02-06T05:38:20.236Z,0.30
2019-02-06T05:40:49.708Z,0.28
2019-02-06T05:43:19.183Z,0.34
2019-02-06T05:45:48.643Z,0.32
2019-02-06T05:48:18.129Z,0.32
2019-02-06T05:50:48.148Z,0.27
2019-02-06T05:53:17.636Z,0.33
2019-02-06T05:55:48.097Z,0.36
2019-02-06T05:58:17.572Z,0.39
2019-02-06T06:00:47.856Z,0.84
2019-02-06T06:03:20.566Z,1.43
2019-02-06T06:05:50.815Z,1.71
2019-02-06T06:08:20.296Z,1.71
2019-02-06T06:10:49.751Z,1.44
2019-02-06T06:13:19.223Z,1.45
2019-02-06T06:15:48.756Z,1.25
2019-02-06T06:18:18.493Z,0.98
2019-02-06T06:20:47.944Z,0.81
2019-02-06T06:23:17.419Z,0.66
2019-02-06T06:25:46.883Z,0.54
2019-02-06T06:28:16.365Z,0.51
2019-02-06T06:30:47.424Z,0.49
2019-02-06T06:33:17.610Z,0.51
2019-02-06T06:35:47.063Z,0.52
2019-02-06T06:38:16.540Z,0.54
2019-02-06T06:40:46.331Z,0.49
2019-02-06T06:43:16.556Z,0.48
2019-02-06T06:45:46.124Z,0.51
2019-02-06T06:48:15.819Z,0.52
2019-02-06T06:50:45.283Z,0.52
2019-02-06T06:53:14.837Z,0.52
2019-02-06T06:55:44.634Z,0.53
2019-02-06T06:58:14.147Z,0.57
2019-02-06T07:00:43.609Z,0.59
2019-02-06T07:03:13.090Z,0.55
2019-02-06T07:05:42.539Z,0.51
2019-02-06T07:08:13.481Z,0.47
2019-02-06T07:10:43.565Z,0.46
2019-02-06T07:13:13.207Z,0.43
2019-02-06T07:15:42.661Z,0.42
2019-02-06T07:18:12.126Z,0.41
2019-02-06T07:20:41.756Z,0.40
2019-02-06T07:23:11.290Z,0.42
2019-02-06T07:25:40.820Z,0.41
2019-02-06T07:28:10.295Z,0.45
2019-02-06T07:30:39.765Z,0.51
2019-02-06T07:33:09.680Z,0.61
2019-02-06T07:35:39.514Z,1.01
2019-02-06T07:38:13.370Z,1.66
2019-02-06T07:40:40.888Z,2.09
2019-02-06T07:43:10.356Z,2.48
2019-02-06T07:45:39.820Z,3.05
2019-02-06T07:48:09.457Z,3.45
2019-02-06T07:50:39.221Z,4.22
2019-02-06T07:53:09.050Z,5.11
2019-02-06T07:55:38.508Z,5.44
2019-02-06T07:58:08.268Z,5.84
2019-02-06T08:00:38.099Z,6.30
2019-02-06T08:03:07.638Z,7.10
2019-02-06T08:05:37.473Z,6.69
2019-02-06T08:08:07.316Z,6.79
2019-02-06T08:10:36.766Z,6.21
2019-02-06T08:13:06.418Z,6.24
2019-02-06T08:15:35.893Z,6.14
2019-02-06T08:18:06.097Z,6.17
2019-02-06T08:20:35.995Z,6.45
2019-02-06T08:23:05.583Z,6.87
2019-02-06T08:25:35.039Z,6.72
2019-02-06T08:28:04.582Z,7.42
2019-02-06T08:30:39.425Z,7.54
2019-02-06T08:33:08.897Z,7.99
2019-02-06T08:35:38.373Z,8.21
2019-02-06T08:38:08.061Z,8.09
2019-02-06T08:40:37.538Z,9.02
2019-02-06T08:43:07.027Z,8.41
2019-02-06T08:45:36.505Z,7.04
2019-02-06T08:48:05.973Z,7.36
2019-02-06T08:50:35.437Z,7.27
2019-02-06T08:53:04.901Z,7.76
2019-02-06T08:55:34.360Z,7.95
2019-02-06T08:58:03.883Z,8.19
2019-02-06T09:00:36.765Z,8.20
2019-02-06T09:03:08.026Z,7.31
2019-02-06T09:05:37.501Z,7.94
2019-02-06T09:08:07.245Z,8.83
2019-02-06T09:10:36.789Z,8.79
2019-02-06T09:13:06.330Z,8.96
2019-02-06T09:15:35.851Z,8.47
2019-02-06T09:18:06.972Z,7.73
2019-02-06T09:20:36.785Z,7.54
2019-02-06T09:23:06.306Z,8.16
2019-02-06T09:25:35.810Z,8.41
2019-02-06T09:28:05.651Z,8.77
2019-02-06T09:30:35.994Z,8.29
2019-02-06T09:33:06.277Z,8.77
2019-02-06T09:35:35.820Z,8.92
2019-02-06T09:38:06.318Z,8.72
2019-02-06T09:40:35.848Z,9.30
2019-02-06T09:43:05.607Z,8.37
2019-02-06T09:45:35.078Z,8.14
2019-02-06T09:48:05.150Z,8.43
2019-02-06T09:50:36.354Z,8.44
2019-02-06T09:53:05.992Z,8.04
2019-02-06T09:55:35.542Z,8.42
2019-02-06T09:58:05.302Z,8.40
2019-02-06T10:00:36.509Z,8.68
2019-02-06T10:03:07.179Z,8.96
2019-02-06T10:05:36.653Z,9.51
2019-02-06T10:08:06.586Z,8.65
2019-02-06T10:10:36.334Z,8.97
2019-02-06T10:13:05.930Z,8.94
2019-02-06T10:15:37.340Z,8.56
2019-02-06T10:18:07.462Z,8.45
2019-02-06T10:20:45.366Z,7.13
2019-02-06T10:23:15.124Z,7.48
2019-02-06T10:25:45.135Z,8.17
2019-02-06T10:28:14.615Z,8.13
2019-02-06T10:30:47.274Z,8.51
2019-02-06T10:33:19.048Z,9.42
2019-02-06T10:35:51.829Z,9.35
2019-02-06T10:38:20.226Z,10.62
2019-02-06T10:40:49.749Z,10.50
2019-02-06T10:43:31.312Z,9.61
2019-02-06T10:45:50.949Z,8.81
2019-02-06T10:48:20.416Z,9.31
2019-02-06T10:50:49.967Z,9.14
2019-02-06T10:53:19.424Z,9.47
2019-02-06T10:55:48.896Z,9.05
2019-02-06T10:58:19.066Z,8.20
2019-02-06T11:00:54.870Z,8.87
2019-02-06T11:03:25.044Z,9.58
2019-02-06T11:05:54.519Z,10.58
2019-02-06T11:08:23.993Z,11.32
2019-02-06T11:10:53.755Z,10.48
2019-02-06T11:13:23.238Z,9.85
2019-02-06T11:15:53.056Z,9.89
2019-02-06T11:18:22.872Z,9.71
2019-02-06T11:20:52.352Z,10.30
2019-02-06T11:23:21.827Z,10.60
2019-02-06T11:25:51.302Z,9.41
2019-02-06T11:28:20.767Z,8.57
2019-02-06T11:30:52.556Z,8.58
2019-02-06T11:33:22.621Z,8.95
2019-02-06T11:35:52.134Z,8.32
2019-02-06T11:38:21.674Z,8.57
2019-02-06T11:40:51.714Z,9.15
2019-02-06T11:43:21.505Z,9.77
2019-02-06T11:45:50.987Z,10.52
2019-02-06T11:48:20.453Z,10.27
2019-02-06T11:50:49.931Z,9.12
2019-02-06T11:53:19.839Z,8.82
2019-02-06T11:55:49.855Z,9.45
2019-02-06T11:58:19.554Z,8.94
2019-02-06T12:00:51.182Z,8.75
2019-02-06T12:03:22.234Z,8.19
2019-02-06T12:05:52.012Z,7.97
2019-02-06T12:08:21.790Z,7.82
2019-02-06T12:10:51.717Z,7.63
2019-02-06T12:13:21.201Z,8.25
2019-02-06T12:15:50.700Z,8.57
2019-02-06T12:18:20.181Z,8.74
2019-02-06T12:20:49.925Z,9.23
2019-02-06T12:23:31.536Z,8.15
2019-02-06T12:25:50.564Z,8.58
2019-02-06T12:28:20.210Z,9.07
2019-02-06T12:30:51.856Z,8.20
2019-02-06T12:33:21.765Z,8.16
2019-02-06T12:35:51.238Z,9.27
2019-02-06T12:38:20.699Z,8.71
2019-02-06T12:40:50.450Z,7.54
2019-02-06T12:43:20.001Z,7.59
2019-02-06T12:45:49.674Z,7.69
2019-02-06T12:48:19.590Z,7.74
2019-02-06T12:50:49.075Z,8.18
2019-02-06T12:53:18.831Z,7.75
2019-02-06T12:55:48.321Z,6.89
2019-02-06T12:58:18.163Z,7.05
2019-02-06T13:00:49.819Z,7.11
2019-02-06T13:03:22.375Z,6.94
2019-02-06T13:05:51.879Z,6.96
2019-02-06T13:08:21.333Z,7.05
2019-02-06T13:10:50.792Z,7.57
2019-02-06T13:13:20.551Z,7.41
2019-02-06T13:15:50.009Z,7.17
2019-02-06T13:18:19.470Z,7.77
2019-02-06T13:20:51.452Z,7.32
2019-02-06T13:23:20.371Z,7.17
2019-02-06T13:25:49.891Z,7.12
2019-02-06T13:28:19.439Z,6.52
2019-02-06T13:30:49.889Z,6.41
2019-02-06T13:33:19.619Z,6.55
2019-02-06T13:35:49.102Z,6.62
2019-02-06T13:38:18.939Z,6.07
2019-02-06T13:40:48.400Z,5.86
2019-02-06T13:43:19.433Z,5.66
2019-02-06T13:45:49.548Z,6.14
2019-02-06T13:48:19.175Z,6.61
2019-02-06T13:50:48.632Z,6.31
2019-02-06T13:53:18.395Z,5.78
2019-02-06T13:55:48.658Z,5.49
2019-02-06T13:58:20.285Z,5.36
2019-02-06T14:00:52.271Z,5.50
2019-02-06T14:03:20.937Z,5.11
2019-02-06T14:05:50.432Z,4.90
2019-02-06T14:08:20.003Z,4.91
2019-02-06T14:10:58.556Z,5.04
2019-02-06T14:13:20.927Z,5.05
2019-02-06T14:15:50.711Z,5.04
2019-02-06T14:18:20.268Z,5.02
2019-02-06T14:20:50.368Z,4.80
2019-02-06T14:23:25.883Z,4.88
2019-02-06T14:26:28.660Z,4.65
2019-02-06T14:29:04.120Z,4.58
2019-02-06T14:31:49.316Z,4.46
2019-02-06T14:34:33.887Z,4.39
2019-02-06T14:37:21.544Z,4.39
2019-02-06T14:39:59.994Z,3.99
2019-02-06T14:42:45.237Z,3.74
2019-02-06T14:45:43.946Z,3.74
2019-02-06T14:48:32.023Z,3.85
2019-02-06T14:51:17.085Z,3.64
2019-02-06T14:53:55.695Z,3.51
2019-02-06T14:56:40.347Z,3.53
2019-02-06T14:59:30.567Z,3.36
2019-02-06T15:02:15.536Z,3.57
2019-02-06T15:04:53.968Z,3.43
2019-02-06T15:07:35.812Z,3.11
2019-02-06T15:10:23.544Z,2.78
2019-02-06T15:13:32.883Z,2.86
2019-02-06T15:16:14.691Z,2.96
2019-02-06T15:18:56.343Z,2.88
2019-02-06T15:21:47.106Z,2.48
2019-02-06T15:24:28.462Z,2.43
2019-02-06T15:27:01.111Z,2.40
2019-02-06T15:29:39.752Z,2.10
2019-02-06T15:32:19.107Z,1.99
2019-02-06T15:35:00.731Z,1.89
2019-02-06T15:37:33.426Z,1.68
2019-02-06T15:40:15.357Z,1.63
2019-02-06T15:43:03.185Z,1.57
2019-02-06T15:45:38.611Z,1.40
2019-02-06T15:48:42.962Z,1.27
2019-02-06T15:51:44.400Z,1.19
2019-02-06T15:54:42.718Z,1.14
2019-02-06T15:57:18.340Z,1.15
2019-02-06T15:59:56.509Z,1.07
2019-02-06T16:02:29.168Z,1.04
2019-02-06T16:05:19.415Z,0.97
2019-02-06T16:08:25.793Z,0.91
2019-02-06T16:11:04.295Z,0.88
2019-02-06T16:13:53.337Z,0.83
2019-02-06T16:16:59.274Z,0.75
2019-02-06T16:19:34.921Z,0.75
2019-02-06T16:22:19.434Z,0.66
2019-02-06T16:24:54.772Z,0.65
2019-02-06T16:27:27.423Z,0.62
2019-02-06T16:30:30.288Z,0.58
2019-02-06T16:33:15.408Z,0.52
2019-02-06T16:36:07.294Z,0.53
2019-02-06T16:38:40.326Z,0.51
2019-02-06T16:41:41.517Z,0.50
2019-02-06T16:44:21.235Z,0.49
2019-02-06T16:47:05.733Z,0.46
2019-02-06T16:49:54.925Z,0.42
2019-02-06T16:52:50.458Z,0.39
2019-02-06T16:55:58.018Z,0.37
2019-02-06T16:58:49.466Z,0.35
2019-02-06T17:01:47.548Z,0.33
2019-02-06T17:04:32.378Z,0.31
2019-02-06T17:07:07.657Z,0.23
2019-02-06T17:09:43.197Z,0.27
2019-02-06T17:12:16.303Z,0.25
2019-02-06T17:15:10.330Z,0.24
2019-02-06T17:18:16.708Z,0.20
2019-02-06T17:20:55.380Z,0.26
2019-02-06T17:23:31.096Z,0.23
2019-02-06T17:26:20.204Z,0.18
2019-02-06T17:29:09.452Z,0.25
2019-02-06T17:31:42.381Z,0.23
2019-02-06T17:34:33.007Z,0.23
2019-02-06T17:37:20.514Z,0.18
2019-02-06T17:39:58.932Z,0.21
2019-02-06T17:42:40.405Z,0.24
2019-02-06T17:45:43.633Z,0.19
2019-02-06T17:48:19.399Z,0.18
2019-02-06T17:51:08.740Z,0.16
2019-02-06T17:53:44.178Z,0.14
2019-02-06T17:56:14.023Z,0.15
2019-02-06T17:58:44.158Z,0.16
2019-02-06T18:01:17.233Z,0.15
2019-02-06T18:03:48.058Z,0.17
2019-02-06T18:06:17.513Z,0.16
2019-02-06T18:08:56.332Z,0.12
2019-02-06T18:11:18.545Z,0.08
2019-02-06T18:13:48.300Z,0.06
2019-02-06T18:16:21.322Z,0.03
2019-02-06T18:18:48.941Z,0.03
2019-02-06T18:21:18.403Z,0.10
2019-02-06T18:23:47.951Z,0.16
2019-02-06T18:26:17.471Z,0.15
2019-02-06T18:28:47.645Z,0.11
2019-02-06T18:31:17.110Z,0.08
2019-02-06T18:33:46.599Z,0.04
2019-02-06T18:36:16.056Z,0.02
2019-02-06T18:38:46.982Z,0.02
2019-02-06T18:41:16.621Z,-0.01
2019-02-06T18:43:46.092Z,0.05
2019-02-06T18:46:15.908Z,-0.01
2019-02-06T18:48:45.380Z,-0.07
2019-02-06T18:51:14.846Z,-0.07
2019-02-06T18:53:44.336Z,-0.07
2019-02-06T18:56:13.884Z,-0.05
2019-02-06T18:58:43.400Z,-0.08
2019-02-06T19:01:15.556Z,-0.05
2019-02-06T19:03:46.881Z,-0.10
2019-02-06T19:06:18.881Z,-0.08
2019-02-06T19:08:47.590Z,-0.11
2019-02-06T19:11:17.169Z,-0.10
2019-02-06T19:13:46.724Z,-0.14
2019-02-06T19:16:16.545Z,-0.13
2019-02-06T19:18:46.037Z,-0.19
2019-02-06T19:21:15.674Z,-0.16
2019-02-06T19:23:45.417Z,-0.14
2019-02-06T19:26:14.945Z,-0.16
2019-02-06T19:28:44.417Z,-0.18
2019-02-06T19:31:17.557Z,-0.15
2019-02-06T19:33:47.314Z,-0.20
2019-02-06T19:36:16.783Z,-0.24
2019-02-06T19:38:46.640Z,-0.22
2019-02-06T19:41:16.408Z,-0.25
2019-02-06T19:43:45.964Z,-0.18
2019-02-06T19:46:15.718Z,-0.13
2019-02-06T19:48:45.205Z,-0.11
2019-02-06T19:51:14.675Z,-0.14
2019-02-06T19:53:44.523Z,-0.16
2019-02-06T19:56:14.054Z,-0.18
2019-02-06T19:58:43.552Z,-0.23
2019-02-06T20:01:13.287Z,-0.22
2019-02-06T20:03:42.756Z,-0.23
2019-02-06T20:06:13.946Z,-0.25
2019-02-06T20:08:43.466Z,-0.25
2019-02-06T20:11:13.765Z,-0.25
2019-02-06T20:13:43.661Z,-0.23
2019-02-06T20:16:13.158Z,-0.28
2019-02-06T20:18:42.649Z,-0.22
2019-02-06T20:21:12.147Z,-0.30
2019-02-06T20:23:41.614Z,-0.38
2019-02-06T20:26:11.110Z,-0.42
2019-02-06T20:28:40.955Z,-0.41
2019-02-06T20:31:10.455Z,-0.42
2019-02-06T20:33:39.932Z,-0.35
2019-02-06T20:36:09.438Z,-0.32
2019-02-06T20:38:38.907Z,-0.32
2019-02-06T20:41:08.428Z,-0.35
2019-02-06T20:43:38.236Z,-0.28
2019-02-06T20:46:08.049Z,-0.31
2019-02-06T20:48:37.534Z,-0.32
2019-02-06T20:51:07.309Z,-0.32
2019-02-06T20:53:36.772Z,-0.33
2019-02-06T20:56:06.504Z,-0.41
2019-02-06T20:58:36.013Z,-0.48
2019-02-06T21:01:05.846Z,-0.52
2019-02-06T21:03:35.825Z,-0.55
2019-02-06T21:06:06.038Z,-0.56
2019-02-06T21:08:35.542Z,-0.63
2019-02-06T21:11:05.316Z,-0.53
2019-02-06T21:13:34.796Z,-0.55
2019-02-06T21:16:04.572Z,-0.57
2019-02-06T21:18:34.040Z,-0.59
2019-02-06T21:21:03.506Z,-0.63
2019-02-06T21:23:33.522Z,-0.62
2019-02-06T21:26:04.457Z,-0.70
2019-02-06T21:28:33.930Z,-0.71
2019-02-06T21:31:04.013Z,-0.79
2019-02-06T21:33:33.560Z,-0.87
2019-02-06T21:36:03.410Z,-0.84
2019-02-06T21:38:32.900Z,-0.80
2019-02-06T21:41:02.717Z,-0.81
2019-02-06T21:43:32.455Z,-0.78
2019-02-06T21:46:03.642Z,-0.77
2019-02-06T21:48:33.109Z,-0.77
2019-02-06T21:51:02.596Z,-0.77
2019-02-06T21:53:34.748Z,-0.83
2019-02-06T21:56:03.270Z,-0.78
2019-02-06T21:58:32.749Z,-0.84
2019-02-06T22:01:02.622Z,-0.78
2019-02-06T22:03:32.088Z,-0.82
2019-02-06T22:06:01.569Z,-0.83
2019-02-06T22:08:31.042Z,-0.86
2019-02-06T22:11:00.540Z,-0.90
2019-02-06T22:13:30.000Z,-0.94
2019-02-06T22:15:59.679Z,-1.03
2019-02-06T22:18:29.191Z,-1.07
2019-02-06T22:21:03.027Z,-1.08
2019-02-06T22:23:32.507Z,-1.27
2019-02-06T22:26:01.982Z,-1.42
2019-02-06T22:28:31.806Z,-1.55
2019-02-06T22:31:01.272Z,-1.63
2019-02-06T22:33:31.058Z,-1.50
2019-02-06T22:36:00.844Z,-1.39
2019-02-06T22:38:30.538Z,-1.35
2019-02-06T22:41:00.404Z,-1.37
2019-02-06T22:43:30.128Z,-1.50
2019-02-06T22:45:59.592Z,-1.39
2019-02-06T22:48:29.072Z,-1.47
2019-02-06T22:50:58.537Z,-1.44
2019-02-06T22:53:28.024Z,-1.41
2019-02-06T22:55:57.934Z,-1.54
2019-02-06T22:58:27.412Z,-1.51
2019-02-06T23:01:02.858Z,-1.41
2019-02-06T23:03:37.240Z,-1.38
2019-02-06T23:06:07.497Z,-1.36
2019-02-06T23:08:37.308Z,-1.31
2019-02-06T23:11:07.550Z,-1.37
2019-02-06T23:13:37.091Z,-1.51
2019-02-06T23:16:06.813Z,-1.64
2019-02-06T23:18:36.558Z,-1.65
2019-02-06T23:21:06.680Z,-1.58
2019-02-06T23:23:36.709Z,-1.55
2019-02-06T23:26:06.192Z,-1.51
2019-02-06T23:28:35.683Z,-1.51
2019-02-06T23:31:05.224Z,-1.52
2019-02-06T23:33:34.705Z,-1.56
2019-02-06T23:36:04.937Z,-1.53
2019-02-06T23:38:34.495Z,-1.55
2019-02-06T23:41:03.969Z,-1.50
2019-02-06T23:43:33.455Z,-1.52
2019-02-06T23:46:02.953Z,-1.50
2019-02-06T23:48:32.429Z,-1.48
2019-02-06T23:51:01.988Z,-1.43
2019-02-06T23:53:34.203Z,-1.42
2019-02-06T23:56:05.481Z,-1.45
2019-02-06T23:58:35.087Z,-1.53
